sensor_id;sensor_type;location;lat;lon;timestamp;temperature;humidity
24678;DHT22;12800;53.094;8.778;2024-03-07T00:00:15;5.60;77.10
24678;DHT22;12800;53.094;8.778;2024-03-07T00:02:46;5.50;77.10
24678;DHT22;12800;53.094;8.778;2024-03-07T00:05:14;5.50;77.20
24678;DHT22;12800;53.094;8.778;2024-03-07T00:07:39;5.50;77.20
24678;DHT22;12800;53.094;8.778;2024-03-07T00:10:06;5.40;77.20
24678;DHT22;12800;53.094;8.778;2024-03-07T00:12:39;5.40;77.30
24678;DHT22;12800;53.094;8.778;2024-03-07T00:15:09;5.40;77.50
24678;DHT22;12800;53.094;8.778;2024-03-07T00:17:36;5.30;77.40
24678;DHT22;12800;53.094;8.778;2024-03-07T00:20:02;5.30;77.60
24678;DHT22;12800;53.094;8.778;2024-03-07T00:22:30;5.30;77.60
24678;DHT22;12800;53.094;8.778;2024-03-07T00:24:56;5.30;77.70
24678;DHT22;12800;53.094;8.778;2024-03-07T00:27:22;5.20;77.70
24678;DHT22;12800;53.094;8.778;2024-03-07T00:29:48;5.20;77.80
24678;DHT22;12800;53.094;8.778;2024-03-07T00:32:21;5.20;77.80
24678;DHT22;12800;53.094;8.778;2024-03-07T00:34:48;5.10;77.90
24678;DHT22;12800;53.094;8.778;2024-03-07T00:37:14;5.00;77.80
24678;DHT22;12800;53.094;8.778;2024-03-07T00:39:40;5.00;78.10
24678;DHT22;12800;53.094;8.778;2024-03-07T00:42:06;5.00;78.20
24678;DHT22;12800;53.094;8.778;2024-03-07T00:44:32;4.90;78.10
24678;DHT22;12800;53.094;8.778;2024-03-07T00:46:57;4.90;78.20
24678;DHT22;12800;53.094;8.778;2024-03-07T00:49:23;4.90;78.30
24678;DHT22;12800;53.094;8.778;2024-03-07T00:51:49;4.80;78.30
24678;DHT22;12800;53.094;8.778;2024-03-07T00:54:15;4.80;78.60
24678;DHT22;12800;53.094;8.778;2024-03-07T00:56:41;4.70;78.70
24678;DHT22;12800;53.094;8.778;2024-03-07T00:59:07;4.70;78.80
24678;DHT22;12800;53.094;8.778;2024-03-07T01:01:32;4.70;78.90
24678;DHT22;12800;53.094;8.778;2024-03-07T01:04:02;4.60;79.10
24678;DHT22;12800;53.094;8.778;2024-03-07T01:06:28;4.60;79.10
24678;DHT22;12800;53.094;8.778;2024-03-07T01:08:54;4.60;79.10
24678;DHT22;12800;53.094;8.778;2024-03-07T01:11:20;4.60;79.20
24678;DHT22;12800;53.094;8.778;2024-03-07T01:13:45;4.50;79.20
24678;DHT22;12800;53.094;8.778;2024-03-07T01:16:11;4.50;80.10
24678;DHT22;12800;53.094;8.778;2024-03-07T01:18:37;4.40;79.90
24678;DHT22;12800;53.094;8.778;2024-03-07T01:21:04;4.40;79.50
24678;DHT22;12800;53.094;8.778;2024-03-07T01:23:31;4.40;79.60
24678;DHT22;12800;53.094;8.778;2024-03-07T01:25:57;4.30;79.70
24678;DHT22;12800;53.094;8.778;2024-03-07T01:28:24;4.30;79.90
24678;DHT22;12800;53.094;8.778;2024-03-07T01:30:50;4.30;79.80
24678;DHT22;12800;53.094;8.778;2024-03-07T01:33:16;4.30;79.80
24678;DHT22;12800;53.094;8.778;2024-03-07T01:35:42;4.20;79.90
24678;DHT22;12800;53.094;8.778;2024-03-07T01:38:07;4.20;80.00
24678;DHT22;12800;53.094;8.778;2024-03-07T01:40:36;4.20;80.00
24678;DHT22;12800;53.094;8.778;2024-03-07T01:43:02;4.10;80.80
24678;DHT22;12800;53.094;8.778;2024-03-07T01:45:28;4.00;80.30
24678;DHT22;12800;53.094;8.778;2024-03-07T01:47:54;4.00;80.40
24678;DHT22;12800;53.094;8.778;2024-03-07T01:50:21;4.00;80.40
24678;DHT22;12800;53.094;8.778;2024-03-07T01:52:48;4.00;81.40
24678;DHT22;12800;53.094;8.778;2024-03-07T01:55:16;4.00;80.70
24678;DHT22;12800;53.094;8.778;2024-03-07T01:57:42;3.90;80.70
24678;DHT22;12800;53.094;8.778;2024-03-07T02:00:08;3.90;80.70
24678;DHT22;12800;53.094;8.778;2024-03-07T02:02:35;3.90;80.80
24678;DHT22;12800;53.094;8.778;2024-03-07T02:05:01;3.90;80.90
24678;DHT22;12800;53.094;8.778;2024-03-07T02:07:27;3.90;80.90
24678;DHT22;12800;53.094;8.778;2024-03-07T02:10:05;3.90;80.90
24678;DHT22;12800;53.094;8.778;2024-03-07T02:12:32;3.90;81.00
24678;DHT22;12800;53.094;8.778;2024-03-07T02:14:58;3.90;81.20
24678;DHT22;12800;53.094;8.778;2024-03-07T02:17:24;3.80;81.10
24678;DHT22;12800;53.094;8.778;2024-03-07T02:19:50;3.80;81.40
24678;DHT22;12800;53.094;8.778;2024-03-07T02:22:17;3.80;81.50
24678;DHT22;12800;53.094;8.778;2024-03-07T02:24:42;3.80;81.70
24678;DHT22;12800;53.094;8.778;2024-03-07T02:27:08;3.80;82.00
24678;DHT22;12800;53.094;8.778;2024-03-07T02:29:35;3.80;82.00
24678;DHT22;12800;53.094;8.778;2024-03-07T02:32:02;3.90;82.20
24678;DHT22;12800;53.094;8.778;2024-03-07T02:34:28;3.90;82.30
24678;DHT22;12800;53.094;8.778;2024-03-07T02:36:54;3.90;82.30
24678;DHT22;12800;53.094;8.778;2024-03-07T02:39:19;3.90;82.50
24678;DHT22;12800;53.094;8.778;2024-03-07T02:41:46;3.90;82.40
24678;DHT22;12800;53.094;8.778;2024-03-07T02:44:13;3.90;82.50
24678;DHT22;12800;53.094;8.778;2024-03-07T02:46:40;3.90;82.80
24678;DHT22;12800;53.094;8.778;2024-03-07T02:49:05;3.90;83.00
24678;DHT22;12800;53.094;8.778;2024-03-07T02:51:31;3.90;83.40
24678;DHT22;12800;53.094;8.778;2024-03-07T02:53:57;3.90;83.50
24678;DHT22;12800;53.094;8.778;2024-03-07T02:56:23;3.90;83.80
24678;DHT22;12800;53.094;8.778;2024-03-07T02:58:49;4.00;84.10
24678;DHT22;12800;53.094;8.778;2024-03-07T03:01:14;4.00;84.10
24678;DHT22;12800;53.094;8.778;2024-03-07T03:03:40;4.00;84.10
24678;DHT22;12800;53.094;8.778;2024-03-07T03:06:08;4.10;84.40
24678;DHT22;12800;53.094;8.778;2024-03-07T03:08:34;4.10;84.40
24678;DHT22;12800;53.094;8.778;2024-03-07T03:11:00;4.10;85.40
24678;DHT22;12800;53.094;8.778;2024-03-07T03:13:26;4.10;84.70
24678;DHT22;12800;53.094;8.778;2024-03-07T03:15:56;4.10;84.70
24678;DHT22;12800;53.094;8.778;2024-03-07T03:18:24;4.00;84.70
24678;DHT22;12800;53.094;8.778;2024-03-07T03:20:50;4.00;85.00
24678;DHT22;12800;53.094;8.778;2024-03-07T03:23:18;4.10;85.10
24678;DHT22;12800;53.094;8.778;2024-03-07T03:25:44;4.10;86.20
24678;DHT22;12800;53.094;8.778;2024-03-07T03:28:10;4.20;85.60
24678;DHT22;12800;53.094;8.778;2024-03-07T03:30:37;4.20;85.60
24678;DHT22;12800;53.094;8.778;2024-03-07T03:33:03;4.20;85.80
24678;DHT22;12800;53.094;8.778;2024-03-07T03:35:29;4.30;85.80
24678;DHT22;12800;53.094;8.778;2024-03-07T03:37:54;4.30;85.80
24678;DHT22;12800;53.094;8.778;2024-03-07T03:40:20;4.40;86.00
24678;DHT22;12800;53.094;8.778;2024-03-07T03:42:45;4.40;86.00
24678;DHT22;12800;53.094;8.778;2024-03-07T03:45:11;4.40;85.80
24678;DHT22;12800;53.094;8.778;2024-03-07T03:47:43;4.40;85.90
24678;DHT22;12800;53.094;8.778;2024-03-07T03:50:11;4.40;86.10
24678;DHT22;12800;53.094;8.778;2024-03-07T03:52:38;4.40;86.20
24678;DHT22;12800;53.094;8.778;2024-03-07T03:55:04;4.40;86.20
24678;DHT22;12800;53.094;8.778;2024-03-07T03:57:39;4.40;86.30
24678;DHT22;12800;53.094;8.778;2024-03-07T04:00:06;4.40;86.30
24678;DHT22;12800;53.094;8.778;2024-03-07T04:02:47;4.40;86.40
24678;DHT22;12800;53.094;8.778;2024-03-07T04:05:13;4.50;86.50
24678;DHT22;12800;53.094;8.778;2024-03-07T04:07:40;4.50;86.50
24678;DHT22;12800;53.094;8.778;2024-03-07T04:10:07;4.40;86.40
24678;DHT22;12800;53.094;8.778;2024-03-07T04:12:34;4.40;86.50
24678;DHT22;12800;53.094;8.778;2024-03-07T04:15:00;4.40;86.90
24678;DHT22;12800;53.094;8.778;2024-03-07T04:17:26;4.40;87.00
24678;DHT22;12800;53.094;8.778;2024-03-07T04:19:52;4.50;87.10
24678;DHT22;12800;53.094;8.778;2024-03-07T04:22:18;4.50;87.20
24678;DHT22;12800;53.094;8.778;2024-03-07T04:24:45;4.50;87.10
24678;DHT22;12800;53.094;8.778;2024-03-07T04:27:11;4.50;87.20
24678;DHT22;12800;53.094;8.778;2024-03-07T04:29:36;4.60;87.10
24678;DHT22;12800;53.094;8.778;2024-03-07T04:32:03;4.60;87.30
24678;DHT22;12800;53.094;8.778;2024-03-07T04:34:30;4.60;87.40
24678;DHT22;12800;53.094;8.778;2024-03-07T04:37:00;4.60;87.30
24678;DHT22;12800;53.094;8.778;2024-03-07T04:39:29;4.60;88.20
24678;DHT22;12800;53.094;8.778;2024-03-07T04:42:02;4.60;87.30
24678;DHT22;12800;53.094;8.778;2024-03-07T04:44:28;4.60;87.70
24678;DHT22;12800;53.094;8.778;2024-03-07T04:46:54;4.60;87.60
24678;DHT22;12800;53.094;8.778;2024-03-07T04:49:23;4.70;87.60
24678;DHT22;12800;53.094;8.778;2024-03-07T04:51:56;4.70;87.60
24678;DHT22;12800;53.094;8.778;2024-03-07T04:54:24;4.70;87.60
24678;DHT22;12800;53.094;8.778;2024-03-07T04:56:51;4.80;87.70
24678;DHT22;12800;53.094;8.778;2024-03-07T04:59:18;4.80;87.60
24678;DHT22;12800;53.094;8.778;2024-03-07T05:01:45;4.70;87.30
24678;DHT22;12800;53.094;8.778;2024-03-07T05:04:14;4.70;87.20
24678;DHT22;12800;53.094;8.778;2024-03-07T05:06:41;4.70;87.50
24678;DHT22;12800;53.094;8.778;2024-03-07T05:09:08;4.70;87.80
24678;DHT22;12800;53.094;8.778;2024-03-07T05:11:34;4.70;87.60
24678;DHT22;12800;53.094;8.778;2024-03-07T05:14:01;4.70;87.90
24678;DHT22;12800;53.094;8.778;2024-03-07T05:16:27;4.70;87.80
24678;DHT22;12800;53.094;8.778;2024-03-07T05:18:53;4.70;88.00
24678;DHT22;12800;53.094;8.778;2024-03-07T05:21:19;4.70;88.10
24678;DHT22;12800;53.094;8.778;2024-03-07T05:24:04;4.80;88.10
24678;DHT22;12800;53.094;8.778;2024-03-07T05:26:31;4.80;87.80
24678;DHT22;12800;53.094;8.778;2024-03-07T05:29:01;4.80;87.70
24678;DHT22;12800;53.094;8.778;2024-03-07T05:31:39;4.80;87.70
24678;DHT22;12800;53.094;8.778;2024-03-07T05:34:12;4.90;87.70
24678;DHT22;12800;53.094;8.778;2024-03-07T05:36:38;4.90;87.50
24678;DHT22;12800;53.094;8.778;2024-03-07T05:39:12;4.90;87.60
24678;DHT22;12800;53.094;8.778;2024-03-07T05:41:38;4.90;88.30
24678;DHT22;12800;53.094;8.778;2024-03-07T05:44:05;4.90;87.50
24678;DHT22;12800;53.094;8.778;2024-03-07T05:46:35;4.90;87.60
24678;DHT22;12800;53.094;8.778;2024-03-07T05:49:01;4.90;87.70
24678;DHT22;12800;53.094;8.778;2024-03-07T05:51:27;5.00;87.90
24678;DHT22;12800;53.094;8.778;2024-03-07T05:53:53;5.00;87.80
24678;DHT22;12800;53.094;8.778;2024-03-07T05:56:18;5.00;87.70
24678;DHT22;12800;53.094;8.778;2024-03-07T05:58:45;5.10;87.60
24678;DHT22;12800;53.094;8.778;2024-03-07T06:01:10;5.10;87.60
24678;DHT22;12800;53.094;8.778;2024-03-07T06:03:37;5.10;87.70
24678;DHT22;12800;53.094;8.778;2024-03-07T06:06:02;5.10;87.60
24678;DHT22;12800;53.094;8.778;2024-03-07T06:08:31;5.10;87.60
24678;DHT22;12800;53.094;8.778;2024-03-07T06:10:56;5.10;87.50
24678;DHT22;12800;53.094;8.778;2024-03-07T06:13:23;5.10;87.40
24678;DHT22;12800;53.094;8.778;2024-03-07T06:15:49;5.10;87.50
24678;DHT22;12800;53.094;8.778;2024-03-07T06:18:14;5.10;87.50
24678;DHT22;12800;53.094;8.778;2024-03-07T06:20:41;5.20;87.60
24678;DHT22;12800;53.094;8.778;2024-03-07T06:23:06;5.20;87.60
24678;DHT22;12800;53.094;8.778;2024-03-07T06:25:33;5.20;87.50
24678;DHT22;12800;53.094;8.778;2024-03-07T06:28:02;5.20;87.60
24678;DHT22;12800;53.094;8.778;2024-03-07T06:30:36;5.20;87.80
24678;DHT22;12800;53.094;8.778;2024-03-07T06:33:02;5.30;87.70
24678;DHT22;12800;53.094;8.778;2024-03-07T06:35:28;5.30;87.80
24678;DHT22;12800;53.094;8.778;2024-03-07T06:37:53;5.30;87.70
24678;DHT22;12800;53.094;8.778;2024-03-07T06:40:19;5.40;87.80
24678;DHT22;12800;53.094;8.778;2024-03-07T06:42:50;5.40;87.90
24678;DHT22;12800;53.094;8.778;2024-03-07T06:45:18;5.50;87.90
24678;DHT22;12800;53.094;8.778;2024-03-07T06:47:43;5.50;87.70
24678;DHT22;12800;53.094;8.778;2024-03-07T06:50:10;5.50;87.80
24678;DHT22;12800;53.094;8.778;2024-03-07T06:52:40;5.60;87.70
24678;DHT22;12800;53.094;8.778;2024-03-07T06:55:05;5.60;87.70
24678;DHT22;12800;53.094;8.778;2024-03-07T06:57:32;5.70;87.60
24678;DHT22;12800;53.094;8.778;2024-03-07T06:59:59;5.70;87.50
24678;DHT22;12800;53.094;8.778;2024-03-07T07:02:25;5.70;87.30
24678;DHT22;12800;53.094;8.778;2024-03-07T07:04:53;5.70;87.40
24678;DHT22;12800;53.094;8.778;2024-03-07T07:07:19;5.70;87.50
24678;DHT22;12800;53.094;8.778;2024-03-07T07:09:45;5.70;87.50
24678;DHT22;12800;53.094;8.778;2024-03-07T07:12:11;5.70;87.50
24678;DHT22;12800;53.094;8.778;2024-03-07T07:14:37;5.70;87.40
24678;DHT22;12800;53.094;8.778;2024-03-07T07:17:03;5.80;87.60
24678;DHT22;12800;53.094;8.778;2024-03-07T07:19:29;5.80;87.50
24678;DHT22;12800;53.094;8.778;2024-03-07T07:21:54;5.80;87.50
24678;DHT22;12800;53.094;8.778;2024-03-07T07:24:20;5.80;87.60
24678;DHT22;12800;53.094;8.778;2024-03-07T07:26:49;5.90;87.60
24678;DHT22;12800;53.094;8.778;2024-03-07T07:29:16;5.90;87.50
24678;DHT22;12800;53.094;8.778;2024-03-07T07:31:41;5.90;87.50
24678;DHT22;12800;53.094;8.778;2024-03-07T07:34:07;6.00;87.60
24678;DHT22;12800;53.094;8.778;2024-03-07T07:36:33;6.00;87.70
24678;DHT22;12800;53.094;8.778;2024-03-07T07:38:58;6.10;87.70
24678;DHT22;12800;53.094;8.778;2024-03-07T07:41:25;6.10;88.60
24678;DHT22;12800;53.094;8.778;2024-03-07T07:43:50;6.20;87.80
24678;DHT22;12800;53.094;8.778;2024-03-07T07:46:17;6.20;87.60
24678;DHT22;12800;53.094;8.778;2024-03-07T07:48:43;6.30;87.70
24678;DHT22;12800;53.094;8.778;2024-03-07T07:51:09;6.30;87.90
24678;DHT22;12800;53.094;8.778;2024-03-07T07:53:35;6.40;87.80
24678;DHT22;12800;53.094;8.778;2024-03-07T07:56:01;6.40;87.70
24678;DHT22;12800;53.094;8.778;2024-03-07T07:58:26;6.50;87.60
24678;DHT22;12800;53.094;8.778;2024-03-07T08:00:52;6.50;87.70
24678;DHT22;12800;53.094;8.778;2024-03-07T08:03:17;6.60;87.70
24678;DHT22;12800;53.094;8.778;2024-03-07T08:05:44;6.60;87.50
24678;DHT22;12800;53.094;8.778;2024-03-07T08:08:12;6.60;87.40
24678;DHT22;12800;53.094;8.778;2024-03-07T08:10:42;6.70;87.30
24678;DHT22;12800;53.094;8.778;2024-03-07T08:13:08;6.70;87.30
24678;DHT22;12800;53.094;8.778;2024-03-07T08:15:39;6.80;87.30
24678;DHT22;12800;53.094;8.778;2024-03-07T08:18:05;6.80;87.10
24678;DHT22;12800;53.094;8.778;2024-03-07T08:20:34;6.80;87.20
24678;DHT22;12800;53.094;8.778;2024-03-07T08:23:00;6.90;87.20
24678;DHT22;12800;53.094;8.778;2024-03-07T08:25:27;7.00;87.10
24678;DHT22;12800;53.094;8.778;2024-03-07T08:27:56;7.00;87.00
24678;DHT22;12800;53.094;8.778;2024-03-07T08:30:23;7.00;86.80
24678;DHT22;12800;53.094;8.778;2024-03-07T08:32:54;7.10;86.80
24678;DHT22;12800;53.094;8.778;2024-03-07T08:35:21;7.20;86.70
24678;DHT22;12800;53.094;8.778;2024-03-07T08:37:48;7.20;86.40
24678;DHT22;12800;53.094;8.778;2024-03-07T08:40:24;7.30;86.00
24678;DHT22;12800;53.094;8.778;2024-03-07T08:42:53;7.30;86.20
24678;DHT22;12800;53.094;8.778;2024-03-07T08:45:22;7.30;86.10
24678;DHT22;12800;53.094;8.778;2024-03-07T08:47:49;7.30;85.70
24678;DHT22;12800;53.094;8.778;2024-03-07T08:50:16;7.30;85.60
24678;DHT22;12800;53.094;8.778;2024-03-07T08:52:47;7.30;85.70
24678;DHT22;12800;53.094;8.778;2024-03-07T08:55:14;7.40;85.70
24678;DHT22;12800;53.094;8.778;2024-03-07T08:57:41;7.40;85.40
24678;DHT22;12800;53.094;8.778;2024-03-07T09:00:08;7.40;85.20
24678;DHT22;12800;53.094;8.778;2024-03-07T09:02:35;7.40;85.20
24678;DHT22;12800;53.094;8.778;2024-03-07T09:05:04;7.50;85.10
24678;DHT22;12800;53.094;8.778;2024-03-07T09:07:30;7.50;85.00
24678;DHT22;12800;53.094;8.778;2024-03-07T09:09:56;7.50;84.70
24678;DHT22;12800;53.094;8.778;2024-03-07T09:12:22;7.50;84.40
24678;DHT22;12800;53.094;8.778;2024-03-07T09:14:47;7.50;84.30
24678;DHT22;12800;53.094;8.778;2024-03-07T09:17:13;7.50;84.30
24678;DHT22;12800;53.094;8.778;2024-03-07T09:19:39;7.60;84.30
24678;DHT22;12800;53.094;8.778;2024-03-07T09:22:04;7.60;84.30
24678;DHT22;12800;53.094;8.778;2024-03-07T09:24:33;7.70;84.20
24678;DHT22;12800;53.094;8.778;2024-03-07T09:27:00;7.80;83.90
24678;DHT22;12800;53.094;8.778;2024-03-07T09:29:26;7.80;83.60
24678;DHT22;12800;53.094;8.778;2024-03-07T09:31:53;7.90;83.60
24678;DHT22;12800;53.094;8.778;2024-03-07T09:34:20;7.90;83.20
24678;DHT22;12800;53.094;8.778;2024-03-07T09:36:47;7.90;83.20
24678;DHT22;12800;53.094;8.778;2024-03-07T09:39:14;8.00;83.00
24678;DHT22;12800;53.094;8.778;2024-03-07T09:41:41;8.10;82.70
24678;DHT22;12800;53.094;8.778;2024-03-07T09:44:09;8.10;82.50
24678;DHT22;12800;53.094;8.778;2024-03-07T09:46:37;8.10;82.40
24678;DHT22;12800;53.094;8.778;2024-03-07T09:49:04;8.10;82.10
24678;DHT22;12800;53.094;8.778;2024-03-07T09:51:31;8.10;82.00
24678;DHT22;12800;53.094;8.778;2024-03-07T09:53:59;8.10;81.80
24678;DHT22;12800;53.094;8.778;2024-03-07T09:56:25;8.00;81.80
24678;DHT22;12800;53.094;8.778;2024-03-07T09:58:56;8.00;81.60
24678;DHT22;12800;53.094;8.778;2024-03-07T10:01:25;8.00;81.40
24678;DHT22;12800;53.094;8.778;2024-03-07T10:03:57;7.90;81.30
24678;DHT22;12800;53.094;8.778;2024-03-07T10:06:23;7.90;81.20
24678;DHT22;12800;53.094;8.778;2024-03-07T10:08:50;7.90;81.10
24678;DHT22;12800;53.094;8.778;2024-03-07T10:11:16;8.00;81.10
24678;DHT22;12800;53.094;8.778;2024-03-07T10:13:42;8.00;80.80
24678;DHT22;12800;53.094;8.778;2024-03-07T10:16:07;7.90;80.60
24678;DHT22;12800;53.094;8.778;2024-03-07T10:18:41;7.90;80.70
24678;DHT22;12800;53.094;8.778;2024-03-07T10:21:07;7.90;80.40
24678;DHT22;12800;53.094;8.778;2024-03-07T10:23:32;7.90;80.50
24678;DHT22;12800;53.094;8.778;2024-03-07T10:26:01;7.90;80.30
24678;DHT22;12800;53.094;8.778;2024-03-07T10:28:27;7.90;80.30
24678;DHT22;12800;53.094;8.778;2024-03-07T10:30:56;7.90;80.30
24678;DHT22;12800;53.094;8.778;2024-03-07T10:33:28;7.90;80.10
24678;DHT22;12800;53.094;8.778;2024-03-07T10:35:58;7.90;80.00
24678;DHT22;12800;53.094;8.778;2024-03-07T10:38:24;7.90;79.90
24678;DHT22;12800;53.094;8.778;2024-03-07T10:40:54;7.80;79.80
24678;DHT22;12800;53.094;8.778;2024-03-07T10:43:21;7.80;80.00
24678;DHT22;12800;53.094;8.778;2024-03-07T10:45:48;7.80;79.80
24678;DHT22;12800;53.094;8.778;2024-03-07T10:48:19;7.80;79.70
24678;DHT22;12800;53.094;8.778;2024-03-07T10:54:17;7.80;79.60
24678;DHT22;12800;53.094;8.778;2024-03-07T10:59:25;7.90;79.50
24678;DHT22;12800;53.094;8.778;2024-03-07T11:02:20;7.90;79.00
24678;DHT22;12800;53.094;8.778;2024-03-07T11:04:53;7.90;78.60
24678;DHT22;12800;53.094;8.778;2024-03-07T11:07:22;7.90;78.30
24678;DHT22;12800;53.094;8.778;2024-03-07T11:09:52;7.90;78.40
24678;DHT22;12800;53.094;8.778;2024-03-07T11:12:23;7.90;78.30
24678;DHT22;12800;53.094;8.778;2024-03-07T11:14:50;7.90;78.10
24678;DHT22;12800;53.094;8.778;2024-03-07T11:17:18;7.90;77.80
24678;DHT22;12800;53.094;8.778;2024-03-07T11:19:44;7.90;77.80
24678;DHT22;12800;53.094;8.778;2024-03-07T11:22:11;7.90;77.80
24678;DHT22;12800;53.094;8.778;2024-03-07T11:24:43;7.90;77.90
24678;DHT22;12800;53.094;8.778;2024-03-07T11:27:10;7.90;77.80
24678;DHT22;12800;53.094;8.778;2024-03-07T11:29:59;7.90;77.60
24678;DHT22;12800;53.094;8.778;2024-03-07T11:32:29;7.90;77.40
24678;DHT22;12800;53.094;8.778;2024-03-07T11:34:54;7.90;77.50
24678;DHT22;12800;53.094;8.778;2024-03-07T11:37:37;8.00;77.50
24678;DHT22;12800;53.094;8.778;2024-03-07T11:40:11;8.00;77.40
24678;DHT22;12800;53.094;8.778;2024-03-07T11:42:45;7.90;77.20
24678;DHT22;12800;53.094;8.778;2024-03-07T11:45:13;7.90;77.60
24678;DHT22;12800;53.094;8.778;2024-03-07T11:47:54;7.80;77.50
24678;DHT22;12800;53.094;8.778;2024-03-07T11:50:32;7.70;77.50
24678;DHT22;12800;53.094;8.778;2024-03-07T11:53:01;7.70;77.90
24678;DHT22;12800;53.094;8.778;2024-03-07T11:55:27;7.70;78.80
24678;DHT22;12800;53.094;8.778;2024-03-07T11:57:59;7.60;77.90
24678;DHT22;12800;53.094;8.778;2024-03-07T12:00:25;7.60;78.10
24678;DHT22;12800;53.094;8.778;2024-03-07T12:02:54;7.60;78.40
24678;DHT22;12800;53.094;8.778;2024-03-07T12:05:19;7.50;78.40
24678;DHT22;12800;53.094;8.778;2024-03-07T12:07:45;7.50;78.40
24678;DHT22;12800;53.094;8.778;2024-03-07T12:10:11;7.50;78.50
24678;DHT22;12800;53.094;8.778;2024-03-07T12:12:37;7.40;78.50
24678;DHT22;12800;53.094;8.778;2024-03-07T12:15:08;7.40;78.50
24678;DHT22;12800;53.094;8.778;2024-03-07T12:17:45;7.40;78.70
24678;DHT22;12800;53.094;8.778;2024-03-07T12:20:15;7.40;78.80
24678;DHT22;12800;53.094;8.778;2024-03-07T12:23:05;7.40;79.00
24678;DHT22;12800;53.094;8.778;2024-03-07T12:25:40;7.50;78.90
24678;DHT22;12800;53.094;8.778;2024-03-07T12:28:08;7.60;78.70
24678;DHT22;12800;53.094;8.778;2024-03-07T12:30:53;7.70;78.50
24678;DHT22;12800;53.094;8.778;2024-03-07T12:33:20;7.70;78.30
24678;DHT22;12800;53.094;8.778;2024-03-07T12:35:50;7.70;78.20
24678;DHT22;12800;53.094;8.778;2024-03-07T12:38:18;7.80;78.40
24678;DHT22;12800;53.094;8.778;2024-03-07T12:40:45;7.90;78.40
24678;DHT22;12800;53.094;8.778;2024-03-07T12:43:17;7.90;78.30
24678;DHT22;12800;53.094;8.778;2024-03-07T12:45:53;7.90;78.10
24678;DHT22;12800;53.094;8.778;2024-03-07T12:48:20;8.00;78.10
24678;DHT22;12800;53.094;8.778;2024-03-07T12:50:49;8.00;77.90
24678;DHT22;12800;53.094;8.778;2024-03-07T12:53:24;8.00;77.90
24678;DHT22;12800;53.094;8.778;2024-03-07T12:55:55;8.00;77.90
24678;DHT22;12800;53.094;8.778;2024-03-07T12:58:21;8.00;78.10
24678;DHT22;12800;53.094;8.778;2024-03-07T13:00:52;8.00;78.00
24678;DHT22;12800;53.094;8.778;2024-03-07T13:03:17;8.10;78.10
24678;DHT22;12800;53.094;8.778;2024-03-07T13:05:43;8.10;78.00
24678;DHT22;12800;53.094;8.778;2024-03-07T13:08:10;8.10;77.90
24678;DHT22;12800;53.094;8.778;2024-03-07T13:10:39;8.10;77.90
24678;DHT22;12800;53.094;8.778;2024-03-07T13:13:05;8.10;77.90
24678;DHT22;12800;53.094;8.778;2024-03-07T13:15:31;8.00;77.80
24678;DHT22;12800;53.094;8.778;2024-03-07T13:17:56;8.00;77.90
24678;DHT22;12800;53.094;8.778;2024-03-07T13:20:22;8.00;77.90
24678;DHT22;12800;53.094;8.778;2024-03-07T13:22:52;8.00;77.90
24678;DHT22;12800;53.094;8.778;2024-03-07T13:25:20;8.10;77.90
24678;DHT22;12800;53.094;8.778;2024-03-07T13:28:06;8.10;77.80
24678;DHT22;12800;53.094;8.778;2024-03-07T13:30:39;8.10;77.90
24678;DHT22;12800;53.094;8.778;2024-03-07T13:33:05;8.00;77.70
24678;DHT22;12800;53.094;8.778;2024-03-07T13:35:31;8.00;77.70
24678;DHT22;12800;53.094;8.778;2024-03-07T13:37:57;8.00;77.90
24678;DHT22;12800;53.094;8.778;2024-03-07T13:40:26;8.00;77.90
24678;DHT22;12800;53.094;8.778;2024-03-07T13:42:57;8.00;77.90
24678;DHT22;12800;53.094;8.778;2024-03-07T13:45:31;7.90;78.60
24678;DHT22;12800;53.094;8.778;2024-03-07T13:47:58;7.90;77.80
24678;DHT22;12800;53.094;8.778;2024-03-07T13:50:26;7.90;78.00
24678;DHT22;12800;53.094;8.778;2024-03-07T13:52:54;7.90;78.00
24678;DHT22;12800;53.094;8.778;2024-03-07T13:55:57;7.90;78.00
24678;DHT22;12800;53.094;8.778;2024-03-07T14:12:16;7.70;78.60
24678;DHT22;12800;53.094;8.778;2024-03-07T14:18:11;7.70;78.60
24678;DHT22;12800;53.094;8.778;2024-03-07T14:21:18;7.70;78.40
24678;DHT22;12800;53.094;8.778;2024-03-07T14:32:18;7.50;78.40
24678;DHT22;12800;53.094;8.778;2024-03-07T14:38:02;7.40;78.10
24678;DHT22;12800;53.094;8.778;2024-03-07T14:40:28;7.30;78.20
24678;DHT22;12800;53.094;8.778;2024-03-07T14:42:55;7.30;78.30
24678;DHT22;12800;53.094;8.778;2024-03-07T14:45:31;7.30;78.50
24678;DHT22;12800;53.094;8.778;2024-03-07T14:47:57;7.30;78.60
24678;DHT22;12800;53.094;8.778;2024-03-07T14:50:24;7.40;78.60
24678;DHT22;12800;53.094;8.778;2024-03-07T14:52:52;7.40;78.50
24678;DHT22;12800;53.094;8.778;2024-03-07T14:55:18;7.40;78.60
24678;DHT22;12800;53.094;8.778;2024-03-07T14:57:44;7.50;78.40
24678;DHT22;12800;53.094;8.778;2024-03-07T15:00:12;7.50;78.30
24678;DHT22;12800;53.094;8.778;2024-03-07T15:02:52;7.50;78.20
24678;DHT22;12800;53.094;8.778;2024-03-07T15:05:23;7.50;78.10
24678;DHT22;12800;53.094;8.778;2024-03-07T15:07:50;7.50;77.90
24678;DHT22;12800;53.094;8.778;2024-03-07T15:10:28;7.60;78.00
24678;DHT22;12800;53.094;8.778;2024-03-07T15:12:56;7.60;77.90
24678;DHT22;12800;53.094;8.778;2024-03-07T15:15:21;7.60;77.60
24678;DHT22;12800;53.094;8.778;2024-03-07T15:17:50;7.60;77.60
24678;DHT22;12800;53.094;8.778;2024-03-07T15:20:15;7.60;77.60
24678;DHT22;12800;53.094;8.778;2024-03-07T15:23:01;7.60;77.60
24678;DHT22;12800;53.094;8.778;2024-03-07T15:25:29;7.70;77.40
24678;DHT22;12800;53.094;8.778;2024-03-07T15:27:57;7.70;77.30
24678;DHT22;12800;53.094;8.778;2024-03-07T15:30:24;7.70;77.10
24678;DHT22;12800;53.094;8.778;2024-03-07T15:32:51;7.70;77.10
24678;DHT22;12800;53.094;8.778;2024-03-07T15:35:17;7.70;77.10
24678;DHT22;12800;53.094;8.778;2024-03-07T15:37:47;7.70;77.20
24678;DHT22;12800;53.094;8.778;2024-03-07T15:40:15;7.70;77.30
24678;DHT22;12800;53.094;8.778;2024-03-07T15:42:42;7.70;77.10
24678;DHT22;12800;53.094;8.778;2024-03-07T15:45:15;7.70;77.00
24678;DHT22;12800;53.094;8.778;2024-03-07T15:47:48;7.70;77.20
24678;DHT22;12800;53.094;8.778;2024-03-07T15:50:14;7.80;77.10
24678;DHT22;12800;53.094;8.778;2024-03-07T15:52:47;7.80;77.10
24678;DHT22;12800;53.094;8.778;2024-03-07T15:55:13;7.80;77.10
24678;DHT22;12800;53.094;8.778;2024-03-07T15:57:46;7.80;77.10
24678;DHT22;12800;53.094;8.778;2024-03-07T16:00:15;7.90;77.00
24678;DHT22;12800;53.094;8.778;2024-03-07T16:05:29;8.00;76.80
24678;DHT22;12800;53.094;8.778;2024-03-07T16:07:56;8.00;76.30
24678;DHT22;12800;53.094;8.778;2024-03-07T16:10:27;8.10;75.90
24678;DHT22;12800;53.094;8.778;2024-03-07T16:12:57;8.10;75.40
24678;DHT22;12800;53.094;8.778;2024-03-07T16:15:23;8.10;75.00
24678;DHT22;12800;53.094;8.778;2024-03-07T16:17:52;8.10;74.50
24678;DHT22;12800;53.094;8.778;2024-03-07T16:20:31;8.10;74.10
24678;DHT22;12800;53.094;8.778;2024-03-07T16:22:58;8.10;73.50
24678;DHT22;12800;53.094;8.778;2024-03-07T16:25:25;8.00;73.20
24678;DHT22;12800;53.094;8.778;2024-03-07T16:27:52;8.00;72.80